Time;durP1;ratioP1;P1;durP2;ratioP2;P2;SDS_P1;SDS_P2;PMS_P1;PMS_P2;Temp;Humidity;BMP_temperature;BMP_pressure;BME280_temperature;BME280_humidity;BME280_pressure;Samples;Min_cycle;Max_cycle;Signal;HPM_P1;HPM_P2
2021/03/17 00:02:22;;;;;;;1.10;0.93;;;22.20;50.50;;;;;;5034899;28;20187;-68
2021/03/17 00:04:48;;;;;;;1.27;0.87;;;22.30;50.60;;;;;;5033357;28;20414;-70
2021/03/17 00:07:14;;;;;;;1.10;0.90;;;22.20;50.50;;;;;;5034557;28;20187;-70
2021/03/17 00:09:40;;;;;;;1.63;0.90;;;22.20;50.50;;;;;;5034353;28;20458;-70
2021/03/17 00:12:06;;;;;;;1.77;1.03;;;22.20;50.50;;;;;;5033266;28;20183;-69
2021/03/17 00:14:31;;;;;;;1.10;0.80;;;22.20;50.50;;;;;;5034434;28;20254;-70
2021/03/17 00:16:57;;;;;;;1.33;1.00;;;22.30;50.60;;;;;;5033143;28;20738;-70
2021/03/17 00:19:22;;;;;;;1.27;0.90;;;22.20;50.50;;;;;;5034563;28;20555;-69
2021/03/17 00:21:48;;;;;;;1.03;0.80;;;22.20;50.50;;;;;;5034327;28;20175;-70
2021/03/17 00:24:14;;;;;;;1.10;0.80;;;22.20;50.50;;;;;;5033071;28;20234;-69
2021/03/17 00:26:39;;;;;;;1.10;0.80;;;22.20;50.50;;;;;;5034191;28;20635;-70
2021/03/17 00:29:05;;;;;;;1.47;0.90;;;22.20;50.50;;;;;;5034030;28;20204;-70
2021/03/17 00:31:30;;;;;;;1.30;0.80;;;22.20;50.50;;;;;;5034136;28;20207;-69
2021/03/17 00:33:56;;;;;;;1.20;1.10;;;22.20;50.50;;;;;;5034309;28;20180;-69
2021/03/17 00:36:22;;;;;;;0.90;0.70;;;22.20;50.50;;;;;;5033856;28;20179;-69
2021/03/17 00:38:48;;;;;;;1.40;1.20;;;22.20;50.50;;;;;;5033931;28;20207;-70
2021/03/17 00:41:13;;;;;;;1.00;0.80;;;22.20;50.50;;;;;;5032710;28;20430;-70
2021/03/17 00:43:39;;;;;;;0.90;0.80;;;22.20;50.50;;;;;;5034001;28;20179;-69
2021/03/17 00:46:05;;;;;;;1.00;0.70;;;22.20;50.50;;;;;;5033890;28;20187;-70
2021/03/17 00:48:31;;;;;;;0.90;0.70;;;22.20;50.60;;;;;;5033742;28;20172;-70
2021/03/17 00:50:56;;;;;;;1.10;1.00;;;22.20;50.60;;;;;;5033725;28;20203;-70
2021/03/17 00:53:22;;;;;;;1.67;1.00;;;22.20;50.60;;;;;;5032437;28;20964;-70
2021/03/17 00:55:47;;;;;;;1.50;0.90;;;22.20;50.60;;;;;;5033720;28;20168;-70
2021/03/17 00:58:13;;;;;;;2.13;1.10;;;22.20;50.60;;;;;;5033666;28;20674;-70
2021/03/17 01:00:39;;;;;;;1.33;1.00;;;22.20;50.60;;;;;;5033588;28;20199;-69
2021/03/17 01:03:04;;;;;;;1.00;0.80;;;22.20;50.60;;;;;;5034286;28;20214;-70
2021/03/17 01:05:31;;;;;;;1.90;1.23;;;22.10;50.50;;;;;;5032253;28;20183;-70
2021/03/17 01:07:58;;;;;;;1.00;0.70;;;22.10;50.50;;;;;;5033241;28;20188;-70
2021/03/17 01:10:44;;;;;;;1.57;0.90;;;22.10;50.50;;;;;;5033610;28;20469;-69
2021/03/17 01:13:11;;;;;;;1.10;0.90;;;22.20;50.60;;;;;;5032984;28;20790;-70
2021/03/17 01:15:37;;;;;;;0.87;0.70;;;22.20;50.60;;;;;;5033406;28;20469;-70
2021/03/17 01:18:04;;;;;;;1.27;0.90;;;22.10;50.50;;;;;;5033385;28;20438;-70
2021/03/17 01:20:31;;;;;;;1.50;1.00;;;22.10;50.50;;;;;;5031994;28;20456;-70
2021/03/17 01:22:57;;;;;;;1.40;0.90;;;22.20;50.70;;;;;;5033460;28;20468;-70
2021/03/17 01:25:32;;;;;;;2.03;0.97;;;22.20;50.70;;;;;;5033249;28;20422;-71
2021/03/17 01:28:02;;;;;;;1.10;0.80;;;22.10;50.60;;;;;;5033603;28;20398;-70
2021/03/17 01:30:30;;;;;;;0.93;0.70;;;22.10;50.60;;;;;;5033127;28;20466;-69
2021/03/17 01:32:56;;;;;;;1.27;0.80;;;22.10;50.60;;;;;;5033360;28;20414;-70
2021/03/17 01:35:21;;;;;;;1.10;0.90;;;22.10;50.60;;;;;;5033015;28;20460;-70
2021/03/17 01:37:47;;;;;;;1.13;0.90;;;22.10;50.60;;;;;;5033027;28;20198;-70
2021/03/17 01:40:14;;;;;;;1.20;0.90;;;22.10;50.60;;;;;;5033050;28;20206;-71
2021/03/17 01:42:40;;;;;;;1.20;0.90;;;22.10;50.60;;;;;;5033237;28;20254;-70
2021/03/17 01:45:13;;;;;;;1.63;0.80;;;22.10;50.60;;;;;;5033568;28;20466;-69
2021/03/17 01:47:40;;;;;;;1.07;0.90;;;22.10;50.70;;;;;;5031771;28;20483;-70
2021/03/17 01:50:12;;;;;;;1.40;1.00;;;22.10;50.70;;;;;;5031516;28;20568;-70
2021/03/17 01:52:39;;;;;;;1.67;0.93;;;22.10;50.70;;;;;;5033576;28;20865;-70
2021/03/17 01:55:06;;;;;;;1.43;0.90;;;22.00;50.60;;;;;;5032980;28;20419;-69
2021/03/17 01:57:33;;;;;;;1.53;1.00;;;22.10;50.70;;;;;;5033011;28;20433;-70
2021/03/17 02:00:00;;;;;;;0.90;0.80;;;22.00;50.70;;;;;;5032809;28;20489;-70
2021/03/17 02:02:26;;;;;;;2.20;0.80;;;22.10;50.70;;;;;;5032857;28;20428;-70
2021/03/17 02:04:52;;;;;;;1.53;1.00;;;22.00;50.70;;;;;;5032877;28;20410;-70
2021/03/17 02:07:18;;;;;;;1.53;0.90;;;22.00;50.70;;;;;;5032847;28;20406;-71
2021/03/17 02:09:43;;;;;;;1.27;0.80;;;22.00;50.70;;;;;;5032895;28;20203;-70
2021/03/17 02:12:26;;;;;;;1.50;1.00;;;22.00;50.70;;;;;;5033029;28;20533;-69
2021/03/17 02:15:07;;;;;;;1.10;0.90;;;22.00;50.70;;;;;;5032771;28;20164;-70
2021/03/17 02:17:36;;;;;;;1.20;0.80;;;22.00;50.70;;;;;;5033112;28;20407;-70
2021/03/17 02:20:02;;;;;;;1.00;0.80;;;22.00;50.70;;;;;;5034485;28;20450;-70
2021/03/17 02:22:49;;;;;;;1.00;0.80;;;22.00;50.70;;;;;;5037125;28;20743;-70
2021/03/17 02:25:33;;;;;;;1.27;0.90;;;22.00;50.70;;;;;;5036827;28;20575;-68
2021/03/17 02:28:13;;;;;;;1.37;1.00;;;22.00;51.30;;;;;;5035280;28;20433;-69
2021/03/17 02:31:03;;;;;;;1.30;1.00;;;21.90;50.70;;;;;;5036303;28;20548;-68
2021/03/17 02:33:39;;;;;;;1.20;0.80;;;21.90;50.70;;;;;;5036795;28;20893;-67
2021/03/17 02:36:31;;;;;;;1.20;0.80;;;21.90;50.80;;;;;;5036317;28;20386;-69
2021/03/17 02:39:09;;;;;;;1.20;0.90;;;22.00;50.80;;;;;;5036167;28;20434;-69
2021/03/17 02:41:46;;;;;;;1.37;0.90;;;21.90;50.80;;;;;;5036430;28;20441;-68
2021/03/17 02:44:16;;;;;;;1.10;0.70;;;21.90;51.30;;;;;;5034933;28;21001;-68
2021/03/17 02:46:43;;;;;;;1.10;0.87;;;21.90;50.80;;;;;;5036112;28;20411;-69
2021/03/17 02:49:36;;;;;;;1.50;1.00;;;21.90;50.80;;;;;;5034653;28;20996;-69
2021/03/17 02:52:04;;;;;;;1.23;1.00;;;21.90;50.70;;;;;;5034103;28;20510;-69
2021/03/17 02:54:31;;;;;;;1.93;1.20;;;21.90;50.80;;;;;;5036018;28;20414;-70
2021/03/17 02:57:12;;;;;;;1.10;0.80;;;21.90;50.80;;;;;;5034685;28;20414;-69
2021/03/17 02:59:38;;;;;;;1.13;0.80;;;21.90;50.70;;;;;;5036154;28;20971;-70
2021/03/17 03:02:05;;;;;;;1.10;1.00;;;21.90;50.70;;;;;;5035799;28;20964;-68
2021/03/17 03:04:35;;;;;;;1.23;1.00;;;21.90;50.70;;;;;;5036049;28;20468;-72
2021/03/17 03:07:02;;;;;;;1.30;0.80;;;22.00;50.70;;;;;;5035076;28;20426;-70
2021/03/17 03:09:28;;;;;;;1.13;0.73;;;22.00;50.80;;;;;;5035592;28;20457;-70
2021/03/17 03:11:59;;;;;;;1.30;0.80;;;22.00;50.70;;;;;;5035632;28;20468;-70
2021/03/17 03:14:26;;;;;;;1.30;1.00;;;22.00;50.70;;;;;;5035586;28;20175;-70
2021/03/17 03:16:55;;;;;;;0.93;0.83;;;22.00;50.70;;;;;;5035619;28;20442;-69
2021/03/17 03:19:24;;;;;;;1.13;0.80;;;22.00;50.70;;;;;;5034553;28;20482;-70
2021/03/17 03:21:51;;;;;;;1.53;0.80;;;22.00;50.70;;;;;;5035523;28;20414;-70
2021/03/17 03:24:17;;;;;;;1.27;0.90;;;22.00;50.70;;;;;;5035429;28;20446;-70
2021/03/17 03:26:43;;;;;;;1.57;0.93;;;22.00;50.70;;;;;;5035539;28;20417;-70
2021/03/17 03:29:11;;;;;;;1.10;0.83;;;22.00;50.70;;;;;;5035100;28;20937;-70
2021/03/17 03:31:37;;;;;;;1.00;0.80;;;22.00;50.70;;;;;;5034058;28;20418;-69
2021/03/17 03:34:03;;;;;;;1.30;0.90;;;22.00;50.70;;;;;;5035196;28;20411;-69
2021/03/17 03:36:29;;;;;;;1.10;0.80;;;22.00;50.70;;;;;;5034086;28;20461;-69
2021/03/17 03:38:58;;;;;;;1.10;0.80;;;22.00;50.70;;;;;;5035108;28;20435;-69
2021/03/17 03:41:24;;;;;;;1.00;0.90;;;22.00;50.70;;;;;;5035195;28;20406;-69
2021/03/17 03:43:50;;;;;;;1.40;1.00;;;21.90;50.60;;;;;;5035020;28;20422;-69
2021/03/17 03:46:15;;;;;;;1.00;0.80;;;21.90;50.60;;;;;;5035043;28;20168;-70
2021/03/17 03:48:41;;;;;;;1.20;0.90;;;21.90;50.60;;;;;;5034897;28;20196;-69
2021/03/17 03:51:07;;;;;;;1.23;0.80;;;22.00;50.70;;;;;;5034854;28;20245;-70
2021/03/17 03:54:06;;;;;;;1.00;0.80;;;21.90;50.60;;;;;;5033599;28;20176;-70
2021/03/17 03:57:03;;;;;;;1.13;0.80;;;21.90;50.60;;;;;;5034512;28;20607;-70
2021/03/17 03:59:34;;;;;;;1.30;0.90;;;21.90;50.70;;;;;;5033573;28;20521;-69
2021/03/17 04:02:02;;;;;;;1.10;0.80;;;21.90;50.80;;;;;;5035046;28;20759;-70
2021/03/17 04:04:31;;;;;;;1.00;0.70;;;21.90;50.70;;;;;;5034661;28;20451;-70
2021/03/17 04:07:00;;;;;;;1.20;0.80;;;21.90;50.70;;;;;;5034592;28;20419;-69
2021/03/17 04:09:31;;;;;;;1.70;1.40;;;21.90;50.80;;;;;;5034585;28;20470;-69
2021/03/17 04:12:02;;;;;;;0.90;0.70;;;21.90;50.70;;;;;;5033989;28;20403;-69
2021/03/17 04:14:30;;;;;;;1.20;0.90;;;21.90;50.80;;;;;;5034516;28;20753;-70
2021/03/17 04:17:37;;;;;;;1.03;0.80;;;21.80;50.70;;;;;;5034426;28;20453;-69
2021/03/17 04:20:08;;;;;;;1.10;0.80;;;21.90;50.70;;;;;;4992872;28;20436;-70
2021/03/17 04:22:36;;;;;;;1.20;0.80;;;21.90;50.80;;;;;;5029396;28;20411;-70
2021/03/17 04:25:05;;;;;;;1.00;0.80;;;21.90;50.80;;;;;;5032975;28;20414;-68
2021/03/17 04:27:32;;;;;;;1.37;0.90;;;21.90;50.80;;;;;;5034245;28;20411;-70
2021/03/17 04:29:59;;;;;;;1.30;1.10;;;21.90;50.80;;;;;;5034221;28;20507;-70
2021/03/17 04:32:27;;;;;;;1.30;0.70;;;21.80;51.30;;;;;;5034195;28;20407;-69
2021/03/17 04:34:54;;;;;;;1.37;0.87;;;21.90;50.80;;;;;;5034081;28;20418;-70
2021/03/17 04:37:21;;;;;;;1.10;0.80;;;21.80;50.70;;;;;;5034439;28;20434;-70
2021/03/17 04:39:48;;;;;;;0.80;0.70;;;21.80;50.70;;;;;;5033974;28;20521;-70
2021/03/17 04:42:15;;;;;;;1.10;0.80;;;21.80;50.70;;;;;;5032142;28;20445;-70
2021/03/17 04:44:41;;;;;;;1.40;1.20;;;21.80;50.70;;;;;;5034272;28;20546;-69
2021/03/17 04:47:10;;;;;;;1.00;0.90;;;21.80;50.80;;;;;;5033849;28;20976;-70
2021/03/17 04:49:36;;;;;;;1.20;0.90;;;21.80;50.80;;;;;;5033945;28;20454;-70
2021/03/17 04:52:03;;;;;;;1.37;0.90;;;21.80;50.80;;;;;;5033746;28;20403;-70
2021/03/17 04:54:29;;;;;;;0.90;0.77;;;21.80;50.80;;;;;;5033643;28;20993;-69
2021/03/17 04:56:55;;;;;;;1.00;0.80;;;21.80;50.80;;;;;;5032366;28;20415;-69
2021/03/17 04:59:22;;;;;;;1.00;0.73;;;21.80;50.80;;;;;;5033598;28;20188;-69
2021/03/17 05:01:50;;;;;;;1.10;0.70;;;21.80;50.90;;;;;;5033617;28;20753;-70
2021/03/17 05:04:17;;;;;;;1.10;0.80;;;21.70;50.80;;;;;;5033595;28;20434;-70
2021/03/17 05:06:45;;;;;;;1.27;0.90;;;21.70;50.80;;;;;;5033537;28;20407;-70
2021/03/17 05:09:13;;;;;;;1.00;0.83;;;21.70;50.80;;;;;;5033662;28;20426;-69
2021/03/17 05:11:40;;;;;;;2.80;1.10;;;21.70;50.80;;;;;;5033408;28;20406;-70
2021/03/17 05:14:06;;;;;;;1.20;0.90;;;21.70;50.80;;;;;;5033379;28;20902;-70
2021/03/17 05:16:35;;;;;;;2.60;0.90;;;21.70;50.90;;;;;;5033306;28;20498;-70
2021/03/17 05:19:01;;;;;;;1.17;0.87;;;21.70;50.90;;;;;;5031987;28;20474;-69
2021/03/17 05:21:28;;;;;;;1.23;0.80;;;21.60;50.80;;;;;;5033244;28;20406;-70
2021/03/17 05:23:55;;;;;;;1.37;0.80;;;21.70;50.90;;;;;;5033295;28;20501;-69
2021/03/17 05:26:23;;;;;;;1.00;0.70;;;21.70;50.90;;;;;;5033487;28;20773;-69
2021/03/17 05:28:49;;;;;;;1.40;1.07;;;21.70;50.90;;;;;;5033381;28;20913;-69
2021/03/17 05:31:18;;;;;;;1.10;0.80;;;21.70;50.90;;;;;;5031912;28;20608;-69
2021/03/17 05:33:45;;;;;;;1.27;1.07;;;21.70;50.90;;;;;;5033169;28;20908;-69
2021/03/17 05:36:11;;;;;;;1.00;0.80;;;21.70;50.90;;;;;;5033075;28;20414;-69
2021/03/17 05:38:37;;;;;;;1.30;1.20;;;21.70;50.90;;;;;;5033081;28;20470;-70
2021/03/17 05:41:03;;;;;;;1.10;0.90;;;21.70;51.40;;;;;;5033040;28;20496;-70
2021/03/17 05:43:30;;;;;;;0.97;0.80;;;21.70;50.90;;;;;;5033002;28;20973;-69
2021/03/17 05:45:57;;;;;;;1.20;0.90;;;21.70;50.80;;;;;;5033054;28;20229;-70
2021/03/17 05:48:25;;;;;;;1.20;0.90;;;21.70;50.80;;;;;;5032993;28;20414;-68
2021/03/17 05:50:51;;;;;;;1.33;0.90;;;21.70;50.80;;;;;;5032911;28;21047;-69
2021/03/17 05:53:17;;;;;;;1.20;1.10;;;21.70;50.80;;;;;;5033374;28;20407;-69
2021/03/17 05:55:44;;;;;;;0.90;0.70;;;21.80;50.80;;;;;;5037069;28;20403;-70
2021/03/17 05:58:11;;;;;;;0.90;0.63;;;21.80;50.70;;;;;;5037115;28;20410;-68
2021/03/17 06:00:37;;;;;;;1.40;1.10;;;21.80;50.70;;;;;;5035626;28;20442;-69
2021/03/17 06:03:04;;;;;;;1.73;0.93;;;21.80;50.70;;;;;;5036956;28;20458;-70
2021/03/17 06:05:30;;;;;;;1.83;1.00;;;21.80;50.70;;;;;;5036944;28;20178;-69
2021/03/17 06:08:07;;;;;;;1.20;0.80;;;21.80;50.60;;;;;;5035562;28;20457;-68
2021/03/17 06:10:34;;;;;;;1.10;0.87;;;21.90;50.60;;;;;;5036938;28;20458;-70
2021/03/17 06:13:09;;;;;;;1.87;1.20;;;21.90;50.60;;;;;;5036780;28;20462;-69
2021/03/17 06:15:37;;;;;;;1.30;0.90;;;21.90;50.60;;;;;;5037026;28;20401;-70
2021/03/17 06:18:13;;;;;;;1.10;0.93;;;21.90;50.50;;;;;;5036642;28;20457;-70
2021/03/17 06:20:40;;;;;;;1.63;1.07;;;21.90;50.50;;;;;;5035769;28;20444;-70
2021/03/17 06:23:06;;;;;;;1.67;1.33;;;21.90;50.50;;;;;;5036497;28;20417;-69
2021/03/17 06:25:32;;;;;;;1.30;1.10;;;21.90;50.50;;;;;;5036760;28;20414;-69
2021/03/17 06:27:58;;;;;;;2.30;1.10;;;21.90;50.50;;;;;;5036459;28;20185;-69
2021/03/17 06:30:23;;;;;;;1.23;1.00;;;21.90;50.40;;;;;;5036261;28;20545;-70
2021/03/17 06:32:49;;;;;;;1.40;1.10;;;21.90;50.40;;;;;;5035094;28;20509;-70
2021/03/17 06:35:24;;;;;;;1.07;0.87;;;21.90;50.40;;;;;;5036360;28;20183;-69
2021/03/17 06:37:51;;;;;;;1.37;1.20;;;21.90;50.40;;;;;;5036318;28;20201;-70
2021/03/17 06:40:21;;;;;;;1.40;0.87;;;21.90;50.50;;;;;;5036481;28;20442;-68
2021/03/17 06:42:47;;;;;;;1.13;1.00;;;21.90;50.40;;;;;;5036211;28;20929;-70
2021/03/17 06:45:13;;;;;;;2.13;1.20;;;21.90;50.40;;;;;;5036230;28;20468;-68
2021/03/17 06:47:39;;;;;;;2.00;1.03;;;21.90;50.50;;;;;;5036106;28;20414;-70
2021/03/17 06:50:12;;;;;;;1.87;1.20;;;22.00;50.50;;;;;;5034573;28;20468;-70
2021/03/17 06:52:45;;;;;;;2.13;0.87;;;22.00;50.50;;;;;;5036080;28;20172;-70
2021/03/17 06:55:12;;;;;;;1.33;1.17;;;22.00;50.50;;;;;;5036022;28;20776;-69
2021/03/17 06:57:41;;;;;;;2.83;1.10;;;22.00;50.50;;;;;;5035893;28;20414;-68
2021/03/17 07:00:32;;;;;;;1.40;1.10;;;22.00;50.50;;;;;;5034567;28;20430;-69
2021/03/17 07:03:06;;;;;;;1.53;1.03;;;22.00;50.50;;;;;;5036154;28;20870;-69
2021/03/17 07:05:41;;;;;;;1.27;0.90;;;22.00;51.10;;;;;;5035311;28;20773;-70
2021/03/17 07:08:11;;;;;;;2.77;0.97;;;22.00;50.50;;;;;;5035870;28;20401;-70
2021/03/17 07:10:40;;;;;;;1.30;1.00;;;22.00;50.50;;;;;;5034234;28;20473;-70
2021/03/17 07:13:08;;;;;;;1.33;1.00;;;22.00;50.50;;;;;;5035792;28;20402;-68
2021/03/17 07:15:35;;;;;;;0.90;0.80;;;22.00;50.50;;;;;;5035781;28;20497;-70
2021/03/17 07:18:25;;;;;;;1.77;1.20;;;22.00;50.40;;;;;;5036108;28;20406;-70
2021/03/17 07:20:52;;;;;;;1.67;0.90;;;22.00;50.40;;;;;;5035980;28;20425;-70
2021/03/17 07:23:26;;;;;;;1.80;1.40;;;22.00;50.50;;;;;;5035581;28;20442;-67
2021/03/17 07:26:06;;;;;;;2.13;1.10;;;22.00;50.50;;;;;;5035626;28;20431;-67
2021/03/17 07:28:54;;;;;;;1.57;1.00;;;22.10;50.50;;;;;;5035255;28;20406;-69
2021/03/17 07:31:22;;;;;;;2.27;1.30;;;22.10;50.50;;;;;;5035499;28;20914;-69
2021/03/17 07:33:49;;;;;;;1.23;1.10;;;22.10;50.40;;;;;;5033922;28;20411;-69
2021/03/17 07:36:50;;;;;;;1.67;1.10;;;22.10;50.30;;;;;;5035395;28;20987;-69
2021/03/17 07:39:25;;;;;;;0.90;0.70;;;22.20;50.30;;;;;;4993776;28;20455;-69
2021/03/17 07:41:53;;;;;;;1.20;0.90;;;22.20;50.20;;;;;;5029416;28;20414;-69
2021/03/17 07:44:19;;;;;;;1.20;0.90;;;22.30;50.20;;;;;;5035013;28;20485;-69
2021/03/17 07:46:47;;;;;;;1.30;1.00;;;22.30;50.20;;;;;;5034977;28;20995;-69
2021/03/17 07:49:13;;;;;;;1.20;0.80;;;22.30;50.10;;;;;;5034907;28;20929;-69
2021/03/17 07:51:46;;;;;;;2.60;1.10;;;22.30;50.10;;;;;;5035001;28;20409;-68
2021/03/17 07:54:19;;;;;;;1.40;1.27;;;22.40;50.20;;;;;;5034829;28;20430;-68
2021/03/17 07:56:46;;;;;;;1.03;0.90;;;22.40;50.20;;;;;;5034949;28;20401;-68
2021/03/17 07:59:12;;;;;;;1.57;1.00;;;22.40;50.10;;;;;;5033376;28;20488;-68
2021/03/17 08:01:38;;;;;;;1.20;0.93;;;22.40;50.10;;;;;;5034756;28;20417;-69
2021/03/17 08:04:06;;;;;;;1.10;1.00;;;22.40;50.10;;;;;;5034707;28;20406;-68
2021/03/17 08:06:31;;;;;;;1.10;0.90;;;22.50;50.20;;;;;;5034935;28;20921;-69
2021/03/17 08:08:58;;;;;;;1.63;1.00;;;22.40;50.10;;;;;;5035054;28;20430;-69
2021/03/17 08:11:27;;;;;;;1.30;1.00;;;22.50;50.10;;;;;;5034484;28;20290;-68
2021/03/17 08:13:53;;;;;;;1.43;0.90;;;22.50;50.10;;;;;;5034524;28;20406;-68
2021/03/17 08:16:32;;;;;;;1.67;1.00;;;22.50;50.10;;;;;;5033586;28;20460;-68
2021/03/17 08:18:58;;;;;;;2.23;1.10;;;22.50;50.10;;;;;;5034465;28;20789;-69
2021/03/17 08:21:47;;;;;;;1.50;0.90;;;22.50;50.10;;;;;;5033093;28;20414;-67
2021/03/17 08:24:34;;;;;;;1.00;0.90;;;22.60;50.10;;;;;;5034555;28;20414;-68
2021/03/17 08:27:15;;;;;;;1.00;0.87;;;22.60;50.10;;;;;;5027311;28;20493;-68
2021/03/17 08:29:40;;;;;;;1.13;0.97;;;22.60;50.10;;;;;;5034635;28;20572;-69
2021/03/17 08:32:07;;;;;;;1.80;1.07;;;22.60;50.10;;;;;;5034177;28;20406;-68
2021/03/17 08:34:34;;;;;;;1.20;0.80;;;22.60;50.10;;;;;;5034244;28;20174;-69
2021/03/17 08:37:11;;;;;;;1.10;0.83;;;22.60;50.10;;;;;;5034055;28;20480;-68
2021/03/17 08:39:37;;;;;;;1.10;0.90;;;22.70;50.10;;;;;;5034018;28;20426;-67
2021/03/17 08:42:06;;;;;;;0.90;0.80;;;22.70;50.10;;;;;;5034011;28;20472;-68
2021/03/17 08:44:41;;;;;;;1.00;0.80;;;22.70;50.10;;;;;;5033874;28;20190;-69
2021/03/17 08:47:21;;;;;;;1.17;0.80;;;22.70;50.10;;;;;;5034070;28;20465;-67
2021/03/17 08:49:49;;;;;;;1.37;0.90;;;22.70;50.10;;;;;;5033685;28;20828;-69
2021/03/17 08:52:17;;;;;;;0.80;0.70;;;22.70;50.10;;;;;;5033851;28;20905;-68
2021/03/17 08:54:55;;;;;;;1.33;1.00;;;22.70;50.10;;;;;;5033967;28;20409;-67
2021/03/17 08:57:22;;;;;;;1.77;1.00;;;22.70;50.10;;;;;;5033946;28;20383;-69
2021/03/17 08:59:51;;;;;;;1.10;0.80;;;22.70;50.10;;;;;;5033444;28;20430;-69
2021/03/17 09:02:26;;;;;;;1.00;0.70;;;22.80;50.10;;;;;;5034122;28;20402;-68
2021/03/17 09:04:53;;;;;;;1.83;0.93;;;22.80;50.10;;;;;;5033663;28;20443;-69
2021/03/17 09:07:21;;;;;;;1.50;0.70;;;22.80;50.10;;;;;;5033401;28;20411;-69
2021/03/17 09:09:52;;;;;;;0.90;0.70;;;22.80;50.10;;;;;;5032024;28;20512;-68
2021/03/17 09:12:43;;;;;;;1.20;0.90;;;22.80;50.10;;;;;;5033412;28;20407;-69
2021/03/17 09:15:14;;;;;;;1.50;0.90;;;22.80;50.10;;;;;;5033302;28;20403;-67
2021/03/17 09:17:45;;;;;;;1.03;0.70;;;22.80;50.10;;;;;;5033811;28;20406;-69
2021/03/17 09:20:31;;;;;;;1.70;0.90;;;22.80;50.10;;;;;;5033495;28;20434;-68
2021/03/17 09:23:08;;;;;;;1.17;0.77;;;22.80;50.10;;;;;;5033606;28;20423;-69
2021/03/17 09:25:49;;;;;;;5.30;1.20;;;22.80;50.10;;;;;;5031994;28;20465;-69
2021/03/17 09:28:29;;;;;;;1.60;0.90;;;22.80;50.10;;;;;;5032924;28;20942;-68
2021/03/17 09:31:04;;;;;;;0.93;0.80;;;22.80;50.10;;;;;;5033319;28;20457;-68
2021/03/17 09:33:37;;;;;;;3.10;0.70;;;22.90;50.10;;;;;;5033636;28;20402;-68
2021/03/17 09:36:06;;;;;;;1.67;1.00;;;22.90;50.20;;;;;;5033126;28;20411;-69
2021/03/17 09:38:34;;;;;;;0.90;0.80;;;22.90;50.20;;;;;;5031583;28;20446;-69
2021/03/17 09:41:10;;;;;;;2.90;0.93;;;22.90;50.10;;;;;;5032955;28;20545;-69
2021/03/17 09:43:45;;;;;;;1.17;0.80;;;22.90;50.10;;;;;;5033367;28;20935;-69
2021/03/17 09:46:29;;;;;;;1.97;0.70;;;22.90;50.10;;;;;;5031778;28;20467;-69
2021/03/17 09:48:58;;;;;;;1.17;0.90;;;22.90;50.10;;;;;;5033057;28;20491;-69
2021/03/17 09:51:36;;;;;;;0.90;0.80;;;22.90;50.10;;;;;;5033105;28;20450;-69
2021/03/17 09:54:04;;;;;;;2.57;0.80;;;22.90;50.10;;;;;;5033194;28;20874;-69
2021/03/17 09:56:38;;;;;;;1.10;0.70;;;22.90;50.10;;;;;;5032885;28;20610;-68
2021/03/17 09:59:31;;;;;;;1.13;0.77;;;22.90;50.00;;;;;;5032591;28;20999;-68
2021/03/17 10:02:04;;;;;;;1.00;0.70;;;22.90;50.00;;;;;;5033157;28;20395;-69
2021/03/17 10:04:35;;;;;;;0.90;0.70;;;22.90;50.10;;;;;;5031607;28;20502;-68
2021/03/17 10:07:03;;;;;;;1.87;0.80;;;22.90;50.00;;;;;;5033015;28;20486;-68
2021/03/17 10:09:31;;;;;;;0.90;0.80;;;22.90;50.00;;;;;;5031464;28;20465;-67
2021/03/17 10:12:07;;;;;;;1.20;0.80;;;22.90;50.10;;;;;;5032725;28;20415;-69
2021/03/17 10:14:35;;;;;;;1.00;0.80;;;22.90;50.00;;;;;;5031483;28;20549;-68
2021/03/17 10:17:04;;;;;;;0.90;0.70;;;22.90;50.10;;;;;;5033263;28;20421;-69
2021/03/17 10:19:30;;;;;;;1.87;0.80;;;22.90;50.00;;;;;;5032598;28;20799;-69
2021/03/17 10:21:57;;;;;;;1.10;0.87;;;22.90;50.10;;;;;;5032619;28;20407;-69
2021/03/17 10:24:37;;;;;;;1.20;0.87;;;22.90;50.00;;;;;;5032942;28;20497;-69
2021/03/17 10:27:08;;;;;;;1.87;0.77;;;22.90;50.00;;;;;;5032733;28;20405;-69
2021/03/17 10:29:34;;;;;;;1.33;0.90;;;22.90;50.00;;;;;;5032779;28;20458;-69
2021/03/17 10:32:03;;;;;;;1.03;0.80;;;22.90;50.10;;;;;;5032550;28;20820;-67
2021/03/17 10:34:29;;;;;;;1.17;0.80;;;22.90;50.00;;;;;;5032727;28;20414;-68
2021/03/17 10:36:55;;;;;;;0.87;0.63;;;22.90;50.00;;;;;;5032701;28;20438;-70
2021/03/17 10:39:26;;;;;;;1.10;0.90;;;22.90;50.00;;;;;;5033092;28;20497;-69
2021/03/17 10:41:52;;;;;;;0.87;0.70;;;22.90;50.00;;;;;;5036151;28;20410;-69
2021/03/17 10:44:23;;;;;;;1.57;0.90;;;22.90;50.00;;;;;;5036134;28;20432;-69
2021/03/17 10:47:06;;;;;;;1.03;0.80;;;22.90;50.00;;;;;;5034890;28;20207;-69
2021/03/17 10:49:33;;;;;;;1.57;0.90;;;22.90;50.00;;;;;;5035993;28;20868;-69
2021/03/17 10:51:59;;;;;;;1.27;0.70;;;22.90;50.00;;;;;;5036045;28;20846;-69
2021/03/17 10:54:39;;;;;;;1.00;0.70;;;22.90;50.10;;;;;;5036038;28;20489;-68
2021/03/17 10:57:05;;;;;;;1.00;0.70;;;22.90;50.00;;;;;;5034762;28;20406;-67
2021/03/17 10:59:35;;;;;;;1.00;0.83;;;22.90;50.00;;;;;;5035899;28;20426;-69
2021/03/17 11:02:22;;;;;;;0.90;0.70;;;23.00;50.10;;;;;;5035801;28;20494;-69
2021/03/17 11:05:03;;;;;;;1.00;0.80;;;23.00;50.10;;;;;;5034552;28;20414;-68
2021/03/17 11:07:52;;;;;;;1.13;0.70;;;23.00;50.10;;;;;;5035744;28;21010;-69
2021/03/17 11:10:35;;;;;;;1.67;0.80;;;23.00;50.10;;;;;;5035686;28;20992;-69
2021/03/17 11:13:13;;;;;;;0.90;0.70;;;23.00;50.10;;;;;;5035890;28;20402;-69
2021/03/17 11:15:49;;;;;;;0.93;0.73;;;23.00;50.10;;;;;;5035589;28;20941;-68
2021/03/17 11:18:31;;;;;;;1.20;0.80;;;23.00;50.20;;;;;;5036067;28;20825;-69
2021/03/17 11:21:06;;;;;;;1.53;0.80;;;23.00;50.10;;;;;;5035512;28;20884;-69
2021/03/17 11:23:37;;;;;;;1.97;0.73;;;23.00;50.70;;;;;;5035553;28;20489;-68
2021/03/17 11:26:08;;;;;;;1.00;0.70;;;23.00;50.10;;;;;;5035387;28;20933;-68
2021/03/17 11:28:39;;;;;;;1.10;0.80;;;23.00;50.10;;;;;;5035344;28;20394;-68
2021/03/17 11:31:10;;;;;;;0.90;0.60;;;23.00;50.10;;;;;;5035257;28;20457;-68
2021/03/17 11:33:37;;;;;;;1.00;0.80;;;23.00;50.10;;;;;;5034028;28;20525;-68
2021/03/17 11:36:04;;;;;;;1.37;0.87;;;23.00;50.10;;;;;;5035211;28;20406;-69
2021/03/17 11:38:30;;;;;;;0.90;0.70;;;23.00;50.10;;;;;;5035065;28;20492;-69
2021/03/17 11:40:58;;;;;;;1.60;0.90;;;23.00;50.10;;;;;;5035127;28;20477;-68
2021/03/17 11:43:30;;;;;;;1.10;0.90;;;23.00;50.10;;;;;;5035084;28;20414;-68
2021/03/17 11:45:58;;;;;;;1.40;0.90;;;23.00;50.00;;;;;;5035373;28;20421;-68
2021/03/17 11:48:25;;;;;;;1.10;0.87;;;23.00;50.00;;;;;;5033667;28;20425;-69
2021/03/17 11:50:53;;;;;;;1.10;0.80;;;23.00;50.00;;;;;;5034856;28;20457;-69
2021/03/17 11:53:20;;;;;;;1.47;0.90;;;23.00;50.00;;;;;;5033904;28;20426;-67
2021/03/17 11:55:46;;;;;;;5.80;1.87;;;23.00;50.00;;;;;;5034769;28;20420;-68
2021/03/17 11:58:12;;;;;;;1.53;0.77;;;23.00;50.00;;;;;;5033468;28;20421;-69
2021/03/17 12:00:39;;;;;;;1.23;0.73;;;23.00;50.00;;;;;;5033473;28;20823;-70
2021/03/17 12:03:06;;;;;;;1.00;0.70;;;23.00;50.00;;;;;;5034774;28;20940;-69
2021/03/17 12:05:32;;;;;;;1.80;0.90;;;23.00;50.00;;;;;;5034828;28;20411;-68
2021/03/17 12:07:58;;;;;;;1.17;0.80;;;23.00;50.10;;;;;;5034615;28;20421;-69
2021/03/17 12:10:25;;;;;;;1.17;1.07;;;23.10;50.10;;;;;;5034455;28;20454;-68
2021/03/17 12:12:51;;;;;;;1.27;0.80;;;23.10;50.10;;;;;;5033182;28;20418;-69
2021/03/17 12:15:19;;;;;;;1.10;0.87;;;23.10;50.10;;;;;;5034725;28;20758;-69
2021/03/17 12:17:46;;;;;;;0.90;0.70;;;23.10;50.10;;;;;;5034489;28;20171;-68
2021/03/17 12:20:14;;;;;;;1.00;0.77;;;23.10;50.10;;;;;;5034217;28;20461;-69
2021/03/17 12:22:40;;;;;;;0.80;0.63;;;23.10;50.10;;;;;;5034290;28;20464;-68
2021/03/17 12:25:07;;;;;;;0.93;0.80;;;23.10;50.10;;;;;;5034252;28;20407;-67
2021/03/17 12:27:33;;;;;;;1.00;0.70;;;23.10;50.00;;;;;;5034287;28;20195;-67
2021/03/17 12:29:59;;;;;;;1.63;0.97;;;23.00;50.00;;;;;;5034013;28;20454;-68
2021/03/17 12:32:25;;;;;;;1.10;0.80;;;23.00;50.00;;;;;;5032870;28;20414;-68
2021/03/17 12:34:52;;;;;;;2.67;1.10;;;23.00;50.00;;;;;;5034077;28;20168;-67
2021/03/17 12:37:17;;;;;;;1.73;1.00;;;23.00;50.00;;;;;;5033878;28;20798;-67
2021/03/17 12:39:43;;;;;;;5.20;2.10;;;22.90;50.50;;;;;;5033960;28;20423;-66
2021/03/17 12:42:09;;;;;;;3.03;1.80;;;22.90;50.00;;;;;;5033956;28;20182;-68
2021/03/17 12:44:36;;;;;;;9.00;3.97;;;22.90;50.00;;;;;;5033899;28;20226;-68
2021/03/17 12:47:03;;;;;;;6.20;3.50;;;22.90;50.00;;;;;;5033874;28;20413;-67
2021/03/17 12:49:29;;;;;;;6.57;3.40;;;22.90;50.00;;;;;;5033644;28;20426;-67
2021/03/17 12:51:56;;;;;;;7.70;3.67;;;22.80;50.00;;;;;;5033815;28;20770;-66
2021/03/17 12:54:22;;;;;;;8.37;3.43;;;22.80;50.00;;;;;;5033753;28;20418;-67
2021/03/17 12:56:47;;;;;;;7.10;3.20;;;22.90;50.10;;;;;;5032435;28;20429;-68
2021/03/17 12:59:13;;;;;;;7.13;3.20;;;22.80;50.10;;;;;;5032299;28;20434;-67
2021/03/17 13:01:39;;;;;;;8.83;3.30;;;22.80;50.10;;;;;;5033577;28;20171;-66
2021/03/17 13:04:05;;;;;;;8.17;3.80;;;22.80;50.10;;;;;;5015905;28;20456;-67